Main page
METAR-TAF:

METAR-TAF

Airports :

Shenandoah Municipal Airport

Shenandoah, Iowa, United States

latitude: 40-45N, longitude: 095-25W, elevation: 971 ft

Current weather observation

The report was made 39 minutes ago, at 06:55 UTC
Calm wind
Temperature 43°F
Humidity 49%
Pressure 30.11 in. Hg
Visibility: 10 miles
Clear sky

METAR: KSDA 220655Z AUTO 00000KT 10SM CLR 06/M04 A3011 RMK AO2

Time: 02:34 (07:34 UTC)


TAF: missing

Weather observations and forecasts of more than 4000 airports (METAR and TAF reports).

The available stations are represented by yellow and red dots on the map.

Hover mouse over dot to see the name of the station.

Then click to see weather observations and forecasts.

To change the map : click on the green buttons with a black cross to zoom in, on the green button with a dash to zoom out, or on the green arrows for adjacent maps.


METAR-TAF: